メインページ
METAR-TAF:

METAR-TAF

空港 :

ニアメ, ニジェール

ディオリ・アマニ国際空港

緯度: 13-29N, 経度: 002-10E, 海抜: 223m

現時点の気象観測

当レポートは51分前の11:00(UTC)に作成
南/南西の風 10kt、から西/南西の間で変化する
気温 34°C
湿度 36%
気圧 1011 hPa
視程: 8000m

METAR: DRRN 241100Z 20010KT 170V240 8000 NSC 34/17 Q1011 NOSIG

時間: 12:51 (11:51 UTC)

予報

当レポートは51分前の11:00(UTC)に作成
予報は24日の 12時(UTC)から 25日の 18時(UTC)まで有効
南西の風 8kt
視程: 6000m
確率 30% :
24日の 16時(UTC)から 24日の 20時(UTC)まで一時的に
高度4500ftの雲はほとんどない, 積乱雲.
激しい雷雨

TAF: DRRN 241100Z 2412/2518 22008KT 6000 NSC PROB30 TEMPO 2416/2420 TS FEW045CB

4,000以上の空港の気象観測と天気予報(METAR報とTAF報)

利用可能な観測所は地図上に黄色い丸と赤い丸で示す。

丸の上にカーソルを重ねると観測所名を参照できる。

次にクリックすると気象観測と天気予報を参照できる。

マップの切り替え:黒色「×」印の緑ボタンをクリックして拡大、「-」印の緑ボタンをクリックして縮小、緑色の三角印をクリックして隣りの地図に切り替え


METAR-TAF: